Culiacan, Mexico

8:39 PM MDT on October 01, 2014 (GMT -0600)
Culiacan International | Change Station
CLOSE
Current Station
Airport
Location: Culiacan,
Elevation: 105 ft
Nearby Weather Stations

Elev 105 ft 24.77 °N, 107.47 °W | Updated 48 minutes ago

Partly Cloudy
Partly Cloudy
88 °F
Feels Like 102 °F
N
7
Wind Variable Wind from North

Today
High -- | Low -- °F
--% Chance of Precip.
Yesterday
High -- | Low -- °F
Precip. -- in
7:01 AM 6:56 PM
First Quarter, 53% visible
Pressure 29.70 in
Visibility 10.0 miles
Clouds Few 3000 ft
Heat Index 102 °F
Dew Point 79 °F
Humidity 75%
Rainfall 0.00 in
Snow Depth Not available.
UV 0 out of 12
Pollen Not available.
Air Quality Not available.
Flu Activity Not available.
SPECI MMCL 020151Z 35006KT 10SM FEW030CB 31/26 A2970 RMK 8/300 ISOL CI/CBS 1QDNT

More Conditions Fewer Conditions

Pressure 29.70 in
Visibility 10.0 miles
Clouds Few 3000 ft
Heat Index 102 °F
Dew Point 79 °F
Humidity 75%
Rainfall 0.00 in
Snow Depth Not available.
UV 0 out of 12
Pollen Not available.
Air Quality Not available.
Flu Activity Not available.
SPECI MMCL 020151Z 35006KT 10SM FEW030CB 31/26 A2970 RMK 8/300 ISOL CI/CBS 1QDNT

More Conditions Fewer Conditions

10-Day Weather Forecast

Almanac

Astronomy

Oct. 01, 2014 Rise Set
Actual Time 7:01 AM MDT 6:56 PM MDT
Civil Twilight 6:39 AM MDT 7:19 PM MDT
Nautical Twilight 6:12 AM MDT 7:45 PM MDT
Astronomical Twilight 5:46 AM MDT 8:12 PM MDT
Moon 1:39 PM MDT (10/1) No Moon Set
Length of Visible Light 12h 40m
Length of Day
11h 54m
Tomorrow will be 1m 25s shorter.
First Quarter, 53% of the Moon is Illuminated
Today
First Quarter
Oct 8
Full
Oct 15
Last Quarter
Oct 23
New
Oct 30
First Quarter

Today's Extremes

Country Highs Country Lows

Community

WunderPhotos

Upload Photos

1,758,147 photos uploaded!

WunderBlogs® & News

Nearby

Snow Depth

Not available.

Earthquake Activity

City Distance Mag. Time & Date
No recent earthquake activity has been reported nearby.
Minimum magnitude displayed is 2.5.

Coastal Water Temperatures

Place Temperature
No Stations Reporting

Nearby Weather Stations